sensor_id;sensor_type;location;lat;lon;timestamp;pressure;altitude;pressure_sealevel;temperature;humidity
67931;BME280;54726;52.000;5.954;2022-07-21T00:00:26;101368.59;;;19.38;82.43
67931;BME280;54726;52.000;5.954;2022-07-21T00:01:27;101359.53;;;19.39;81.76
67931;BME280;54726;52.000;5.954;2022-07-21T00:02:27;101355.22;;;19.37;82.19
67931;BME280;54726;52.000;5.954;2022-07-21T00:03:28;101369.53;;;19.37;82.02
67931;BME280;54726;52.000;5.954;2022-07-21T00:04:28;101362.66;;;19.33;82.39
67931;BME280;54726;52.000;5.954;2022-07-21T00:05:29;101365.00;;;19.38;81.93
67931;BME280;54726;52.000;5.954;2022-07-21T00:06:29;101362.44;;;19.36;82.27
67931;BME280;54726;52.000;5.954;2022-07-21T00:07:30;101357.06;;;19.36;82.23
67931;BME280;54726;52.000;5.954;2022-07-21T00:08:30;101354.38;;;19.36;82.24
67931;BME280;54726;52.000;5.954;2022-07-21T00:09:31;101357.06;;;19.36;82.25
67931;BME280;54726;52.000;5.954;2022-07-21T00:10:31;101356.31;;;19.34;82.14
67931;BME280;54726;52.000;5.954;2022-07-21T00:11:32;101349.00;;;19.36;82.15
67931;BME280;54726;52.000;5.954;2022-07-21T00:12:32;101342.63;;;19.37;82.35
67931;BME280;54726;52.000;5.954;2022-07-21T00:13:34;101333.84;;;19.35;82.48
67931;BME280;54726;52.000;5.954;2022-07-21T00:14:35;101338.47;;;19.33;82.43
67931;BME280;54726;52.000;5.954;2022-07-21T00:15:35;101350.72;;;19.37;82.41
67931;BME280;54726;52.000;5.954;2022-07-21T00:16:36;101356.44;;;19.33;82.69
67931;BME280;54726;52.000;5.954;2022-07-21T00:17:36;101365.22;;;19.22;82.76
67931;BME280;54726;52.000;5.954;2022-07-21T00:18:37;101357.03;;;19.11;83.44
67931;BME280;54726;52.000;5.954;2022-07-21T00:19:37;101366.25;;;19.07;83.25
67931;BME280;54726;52.000;5.954;2022-07-21T00:20:38;101369.28;;;19.02;83.29
67931;BME280;54726;52.000;5.954;2022-07-21T00:21:38;101367.75;;;18.98;83.76
67931;BME280;54726;52.000;5.954;2022-07-21T00:22:39;101373.91;;;19.00;83.37
67931;BME280;54726;52.000;5.954;2022-07-21T00:23:40;101370.16;;;19.03;83.91
67931;BME280;54726;52.000;5.954;2022-07-21T00:24:40;101381.53;;;19.06;83.77
67931;BME280;54726;52.000;5.954;2022-07-21T00:25:41;101378.75;;;19.08;83.67
67931;BME280;54726;52.000;5.954;2022-07-21T00:26:41;101376.81;;;19.10;83.83
67931;BME280;54726;52.000;5.954;2022-07-21T00:27:42;101381.44;;;19.08;83.56
67931;BME280;54726;52.000;5.954;2022-07-21T00:28:44;101383.16;;;19.09;83.68
67931;BME280;54726;52.000;5.954;2022-07-21T00:29:44;101381.34;;;19.09;83.75
67931;BME280;54726;52.000;5.954;2022-07-21T00:30:45;101379.72;;;19.07;83.31
67931;BME280;54726;52.000;5.954;2022-07-21T00:31:46;101376.81;;;19.10;83.38
67931;BME280;54726;52.000;5.954;2022-07-21T00:32:47;101378.56;;;19.11;83.65
67931;BME280;54726;52.000;5.954;2022-07-21T00:33:47;101374.03;;;19.11;83.58
67931;BME280;54726;52.000;5.954;2022-07-21T00:34:48;101371.44;;;19.10;83.63
67931;BME280;54726;52.000;5.954;2022-07-21T00:35:48;101379.41;;;19.11;83.62
67931;BME280;54726;52.000;5.954;2022-07-21T00:36:48;101372.31;;;19.10;83.87
67931;BME280;54726;52.000;5.954;2022-07-21T00:37:49;101380.38;;;19.10;83.83
67931;BME280;54726;52.000;5.954;2022-07-21T00:38:49;101374.25;;;19.08;83.98
67931;BME280;54726;52.000;5.954;2022-07-21T00:39:50;101371.00;;;19.03;83.89
67931;BME280;54726;52.000;5.954;2022-07-21T00:40:51;101375.31;;;19.06;83.93
67931;BME280;54726;52.000;5.954;2022-07-21T00:41:51;101374.44;;;19.05;84.09
67931;BME280;54726;52.000;5.954;2022-07-21T00:42:52;101369.94;;;19.06;84.36
67931;BME280;54726;52.000;5.954;2022-07-21T00:43:54;101365.53;;;19.05;84.47
67931;BME280;54726;52.000;5.954;2022-07-21T00:44:55;101369.06;;;19.05;84.24
67931;BME280;54726;52.000;5.954;2022-07-21T00:45:56;101368.41;;;19.01;84.77
67931;BME280;54726;52.000;5.954;2022-07-21T00:46:56;101361.22;;;19.02;84.46
67931;BME280;54726;52.000;5.954;2022-07-21T00:47:58;101359.47;;;19.01;84.21
67931;BME280;54726;52.000;5.954;2022-07-21T00:48:58;101362.28;;;18.99;84.39
67931;BME280;54726;52.000;5.954;2022-07-21T00:50:00;101358.94;;;18.96;84.63
67931;BME280;54726;52.000;5.954;2022-07-21T00:51:00;101363.22;;;18.98;84.48
67931;BME280;54726;52.000;5.954;2022-07-21T00:52:01;101364.97;;;18.99;84.40
67931;BME280;54726;52.000;5.954;2022-07-21T00:53:01;101364.97;;;18.99;84.89
67931;BME280;54726;52.000;5.954;2022-07-21T00:54:02;101365.84;;;19.00;84.70
67931;BME280;54726;52.000;5.954;2022-07-21T00:55:03;101367.44;;;19.03;84.88
67931;BME280;54726;52.000;5.954;2022-07-21T00:56:05;101357.00;;;18.98;84.49
67931;BME280;54726;52.000;5.954;2022-07-21T00:57:05;101366.38;;;19.05;84.51
67931;BME280;54726;52.000;5.954;2022-07-21T00:58:06;101368.22;;;19.05;84.51
67931;BME280;54726;52.000;5.954;2022-07-21T00:59:08;101360.16;;;19.05;84.40
67931;BME280;54726;52.000;5.954;2022-07-21T01:00:11;101369.94;;;19.06;84.48
67931;BME280;54726;52.000;5.954;2022-07-21T01:01:12;101356.69;;;19.03;84.43
67931;BME280;54726;52.000;5.954;2022-07-21T01:02:13;101359.69;;;18.98;84.90
67931;BME280;54726;52.000;5.954;2022-07-21T01:03:13;101362.50;;;18.96;84.66
67931;BME280;54726;52.000;5.954;2022-07-21T01:04:13;101365.19;;;18.96;85.05
67931;BME280;54726;52.000;5.954;2022-07-21T01:05:15;101357.97;;;18.97;84.98
67931;BME280;54726;52.000;5.954;2022-07-21T01:06:16;101365.19;;;18.96;84.70
67931;BME280;54726;52.000;5.954;2022-07-21T01:07:16;101357.13;;;18.96;85.11
67931;BME280;54726;52.000;5.954;2022-07-21T01:08:17;101351.06;;;18.93;84.94
67931;BME280;54726;52.000;5.954;2022-07-21T01:09:18;101347.44;;;18.94;84.96
67931;BME280;54726;52.000;5.954;2022-07-21T01:10:20;101348.38;;;18.93;85.20
67931;BME280;54726;52.000;5.954;2022-07-21T01:11:21;101344.84;;;18.92;85.29
67931;BME280;54726;52.000;5.954;2022-07-21T01:12:24;101339.38;;;18.94;85.39
67931;BME280;54726;52.000;5.954;2022-07-21T01:13:24;101335.06;;;18.91;85.41
67931;BME280;54726;52.000;5.954;2022-07-21T01:14:26;101333.00;;;18.95;85.32
67931;BME280;54726;52.000;5.954;2022-07-21T01:15:27;101331.09;;;18.97;84.78
67931;BME280;54726;52.000;5.954;2022-07-21T01:16:28;101326.03;;;18.92;85.32
67931;BME280;54726;52.000;5.954;2022-07-21T01:17:28;101330.34;;;18.95;84.95
67931;BME280;54726;52.000;5.954;2022-07-21T01:18:29;101331.41;;;18.92;85.19
67931;BME280;54726;52.000;5.954;2022-07-21T01:19:30;101329.13;;;18.86;85.13
67931;BME280;54726;52.000;5.954;2022-07-21T01:20:33;101333.31;;;18.90;85.72
67931;BME280;54726;52.000;5.954;2022-07-21T01:21:37;101332.47;;;18.90;85.40
67931;BME280;54726;52.000;5.954;2022-07-21T01:22:40;101333.44;;;18.89;85.50
67931;BME280;54726;52.000;5.954;2022-07-21T01:23:41;101332.69;;;18.87;85.39
67931;BME280;54726;52.000;5.954;2022-07-21T01:24:41;101334.41;;;18.88;85.00
67931;BME280;54726;52.000;5.954;2022-07-21T01:25:46;101336.97;;;18.89;85.49
67931;BME280;54726;52.000;5.954;2022-07-21T01:26:48;101335.47;;;18.85;85.20
67931;BME280;54726;52.000;5.954;2022-07-21T01:27:49;101336.97;;;18.89;85.48
67931;BME280;54726;52.000;5.954;2022-07-21T01:28:49;101332.69;;;18.87;85.45
67931;BME280;54726;52.000;5.954;2022-07-21T01:29:50;101333.94;;;18.81;86.21
67931;BME280;54726;52.000;5.954;2022-07-21T01:30:50;101332.44;;;18.77;86.24
67931;BME280;54726;52.000;5.954;2022-07-21T01:31:51;101321.31;;;18.69;85.91
67931;BME280;54726;52.000;5.954;2022-07-21T01:32:51;101330.81;;;18.74;85.63
67931;BME280;54726;52.000;5.954;2022-07-21T01:33:52;101331.75;;;18.73;85.38
67931;BME280;54726;52.000;5.954;2022-07-21T01:34:52;101337.06;;;18.75;85.57
67931;BME280;54726;52.000;5.954;2022-07-21T01:35:53;101341.63;;;18.73;85.57
67931;BME280;54726;52.000;5.954;2022-07-21T01:36:54;101342.44;;;18.75;85.70
67931;BME280;54726;52.000;5.954;2022-07-21T01:37:55;101341.56;;;18.74;85.76
67931;BME280;54726;52.000;5.954;2022-07-21T01:38:55;101339.06;;;18.71;85.65
67931;BME280;54726;52.000;5.954;2022-07-21T01:39:56;101349.63;;;18.74;85.58
67931;BME280;54726;52.000;5.954;2022-07-21T01:40:57;101342.44;;;18.75;85.82
67931;BME280;54726;52.000;5.954;2022-07-21T01:41:58;101343.41;;;18.74;85.67
67931;BME280;54726;52.000;5.954;2022-07-21T01:42:59;101344.31;;;18.73;86.15
67931;BME280;54726;52.000;5.954;2022-07-21T01:44:01;101343.75;;;18.68;85.86
67931;BME280;54726;52.000;5.954;2022-07-21T01:45:03;101342.91;;;18.67;85.82
67931;BME280;54726;52.000;5.954;2022-07-21T01:46:04;101338.38;;;18.68;86.21
67931;BME280;54726;52.000;5.954;2022-07-21T01:47:05;101341.75;;;18.71;86.22
67931;BME280;54726;52.000;5.954;2022-07-21T01:48:06;101347.13;;;18.71;86.23
67931;BME280;54726;52.000;5.954;2022-07-21T01:49:06;101344.53;;;18.70;86.36
67931;BME280;54726;52.000;5.954;2022-07-21T01:50:07;101348.06;;;18.70;86.01
67931;BME280;54726;52.000;5.954;2022-07-21T01:51:08;101341.84;;;18.70;85.95
67931;BME280;54726;52.000;5.954;2022-07-21T01:52:10;101343.66;;;18.69;85.90
67931;BME280;54726;52.000;5.954;2022-07-21T01:53:10;101343.66;;;18.69;85.84
67931;BME280;54726;52.000;5.954;2022-07-21T01:54:11;101343.75;;;18.68;86.08
67931;BME280;54726;52.000;5.954;2022-07-21T01:55:11;101341.97;;;18.68;85.94
67931;BME280;54726;52.000;5.954;2022-07-21T01:56:12;101336.69;;;18.67;85.94
67931;BME280;54726;52.000;5.954;2022-07-21T01:57:12;101331.50;;;18.64;86.26
67931;BME280;54726;52.000;5.954;2022-07-21T01:58:13;101340.34;;;18.66;85.88
67931;BME280;54726;52.000;5.954;2022-07-21T01:59:13;101334.28;;;18.62;86.21
67931;BME280;54726;52.000;5.954;2022-07-21T02:00:14;101336.03;;;18.63;86.06
67931;BME280;54726;52.000;5.954;2022-07-21T02:01:15;101325.38;;;18.62;86.43
67931;BME280;54726;52.000;5.954;2022-07-21T02:02:15;101333.34;;;18.63;86.16
67931;BME280;54726;52.000;5.954;2022-07-21T02:03:15;101336.03;;;18.63;86.14
67931;BME280;54726;52.000;5.954;2022-07-21T02:04:16;101331.59;;;18.62;86.06
67931;BME280;54726;52.000;5.954;2022-07-21T02:05:16;101333.44;;;18.62;86.28
67931;BME280;54726;52.000;5.954;2022-07-21T02:06:17;101327.19;;;18.61;86.43
67931;BME280;54726;52.000;5.954;2022-07-21T02:07:18;101330.88;;;18.60;86.47
67931;BME280;54726;52.000;5.954;2022-07-21T02:08:19;101335.25;;;18.61;86.30
67931;BME280;54726;52.000;5.954;2022-07-21T02:09:19;101330.88;;;18.60;86.18
67931;BME280;54726;52.000;5.954;2022-07-21T02:10:20;101333.56;;;18.60;86.38
67931;BME280;54726;52.000;5.954;2022-07-21T02:11:21;101325.78;;;18.55;86.14
67931;BME280;54726;52.000;5.954;2022-07-21T02:12:21;101328.25;;;18.59;86.30
67931;BME280;54726;52.000;5.954;2022-07-21T02:13:22;101328.47;;;18.55;86.89
67931;BME280;54726;52.000;5.954;2022-07-21T02:14:22;101325.69;;;18.57;86.64
67931;BME280;54726;52.000;5.954;2022-07-21T02:15:23;101329.25;;;18.58;86.53
67931;BME280;54726;52.000;5.954;2022-07-21T02:16:23;101324.81;;;18.56;86.56
67931;BME280;54726;52.000;5.954;2022-07-21T02:17:24;101327.63;;;18.55;86.41
67931;BME280;54726;52.000;5.954;2022-07-21T02:18:24;101331.16;;;18.55;87.12
67931;BME280;54726;52.000;5.954;2022-07-21T02:19:25;101312.00;;;18.47;86.60
67931;BME280;54726;52.000;5.954;2022-07-21T02:20:25;101322.31;;;18.53;86.37
67931;BME280;54726;52.000;5.954;2022-07-21T02:21:26;101321.38;;;18.54;86.31
67931;BME280;54726;52.000;5.954;2022-07-21T02:22:28;101317.81;;;18.54;86.36
67931;BME280;54726;52.000;5.954;2022-07-21T02:23:30;101312.56;;;18.52;86.29
67931;BME280;54726;52.000;5.954;2022-07-21T02:24:31;101318.13;;;18.49;86.31
67931;BME280;54726;52.000;5.954;2022-07-21T02:25:31;101313.81;;;18.47;86.53
67931;BME280;54726;52.000;5.954;2022-07-21T02:26:31;101316.50;;;18.47;86.69
67931;BME280;54726;52.000;5.954;2022-07-21T02:27:32;101319.28;;;18.45;86.57
67931;BME280;54726;52.000;5.954;2022-07-21T02:28:32;101326.41;;;18.46;86.66
67931;BME280;54726;52.000;5.954;2022-07-21T02:29:33;101321.25;;;18.43;86.98
67931;BME280;54726;52.000;5.954;2022-07-21T02:30:33;101309.94;;;18.38;86.81
67931;BME280;54726;52.000;5.954;2022-07-21T02:31:34;101322.31;;;18.41;86.65
67931;BME280;54726;52.000;5.954;2022-07-21T02:32:34;101319.63;;;18.41;86.94
67931;BME280;54726;52.000;5.954;2022-07-21T02:33:35;101316.16;;;18.39;86.79
67931;BME280;54726;52.000;5.954;2022-07-21T02:34:35;101317.00;;;18.39;86.75
67931;BME280;54726;52.000;5.954;2022-07-21T02:35:35;101327.75;;;18.39;87.09
67931;BME280;54726;52.000;5.954;2022-07-21T02:36:36;101327.00;;;18.37;87.02
67931;BME280;54726;52.000;5.954;2022-07-21T02:37:38;101325.28;;;18.36;87.32
67931;BME280;54726;52.000;5.954;2022-07-21T02:38:39;101323.66;;;18.33;87.42
67931;BME280;54726;52.000;5.954;2022-07-21T02:39:39;101328.16;;;18.33;87.52
67931;BME280;54726;52.000;5.954;2022-07-21T02:40:40;101328.16;;;18.33;87.27
67931;BME280;54726;52.000;5.954;2022-07-21T02:41:40;101330.94;;;18.31;87.22
67931;BME280;54726;52.000;5.954;2022-07-21T02:42:41;101329.13;;;18.32;87.35
67931;BME280;54726;52.000;5.954;2022-07-21T02:43:41;101328.38;;;18.30;87.20
67931;BME280;54726;52.000;5.954;2022-07-21T02:44:41;101328.16;;;18.33;87.41
67931;BME280;54726;52.000;5.954;2022-07-21T02:45:42;101330.94;;;18.31;87.28
67931;BME280;54726;52.000;5.954;2022-07-21T02:46:42;101336.31;;;18.31;87.25
67931;BME280;54726;52.000;5.954;2022-07-21T02:47:51;101330.09;;;18.31;87.46
67931;BME280;54726;52.000;5.954;2022-07-21T02:48:51;101329.22;;;18.30;87.40
67931;BME280;54726;52.000;5.954;2022-07-21T02:49:52;101320.59;;;18.25;87.67
67931;BME280;54726;52.000;5.954;2022-07-21T02:50:52;101330.09;;;18.31;87.44
67931;BME280;54726;52.000;5.954;2022-07-21T02:51:52;101325.56;;;18.31;87.28
67931;BME280;54726;52.000;5.954;2022-07-21T02:52:55;101312.34;;;18.28;87.30
67931;BME280;54726;52.000;5.954;2022-07-21T02:53:55;101314.81;;;18.31;87.37
67931;BME280;54726;52.000;5.954;2022-07-21T02:54:56;101315.81;;;18.30;87.35
67931;BME280;54726;52.000;5.954;2022-07-21T02:55:56;101312.25;;;18.30;87.34
67931;BME280;54726;52.000;5.954;2022-07-21T02:56:57;101308.03;;;18.26;87.21
67931;BME280;54726;52.000;5.954;2022-07-21T02:58:06;101307.09;;;18.27;87.68
67931;BME280;54726;52.000;5.954;2022-07-21T02:59:06;101315.22;;;18.25;87.39
67931;BME280;54726;52.000;5.954;2022-07-21T03:00:09;101312.66;;;18.24;87.79
67931;BME280;54726;52.000;5.954;2022-07-21T03:01:10;101309.41;;;18.19;87.90
67931;BME280;54726;52.000;5.954;2022-07-21T03:02:10;101318.31;;;18.19;87.89
67931;BME280;54726;52.000;5.954;2022-07-21T03:03:11;101313.81;;;18.20;88.00
67931;BME280;54726;52.000;5.954;2022-07-21T03:04:12;101316.50;;;18.20;88.05
67931;BME280;54726;52.000;5.954;2022-07-21T03:05:13;101308.56;;;18.18;88.14
67931;BME280;54726;52.000;5.954;2022-07-21T03:06:13;101315.56;;;18.21;87.84
67931;BME280;54726;52.000;5.954;2022-07-21T03:07:13;101313.72;;;18.21;87.90
67931;BME280;54726;52.000;5.954;2022-07-21T03:08:15;101311.97;;;18.20;87.77
67931;BME280;54726;52.000;5.954;2022-07-21T03:09:16;101318.03;;;18.24;88.18
67931;BME280;54726;52.000;5.954;2022-07-21T03:10:16;101315.44;;;18.22;87.90
67931;BME280;54726;52.000;5.954;2022-07-21T03:11:17;101313.53;;;18.24;88.16
67931;BME280;54726;52.000;5.954;2022-07-21T03:12:17;101314.50;;;18.23;87.98
67931;BME280;54726;52.000;5.954;2022-07-21T03:13:18;101311.69;;;18.25;88.21
67931;BME280;54726;52.000;5.954;2022-07-21T03:14:19;101302.13;;;18.21;87.82
67931;BME280;54726;52.000;5.954;2022-07-21T03:15:19;101302.13;;;18.21;87.92
67931;BME280;54726;52.000;5.954;2022-07-21T03:16:20;101293.72;;;18.13;88.17
67931;BME280;54726;52.000;5.954;2022-07-21T03:17:20;101302.88;;;18.23;87.91
67931;BME280;54726;52.000;5.954;2022-07-21T03:18:22;101298.25;;;18.25;88.06
67931;BME280;54726;52.000;5.954;2022-07-21T03:19:22;101305.34;;;18.26;88.32
67931;BME280;54726;52.000;5.954;2022-07-21T03:20:23;101299.53;;;18.19;87.83
67931;BME280;54726;52.000;5.954;2022-07-21T03:21:23;101306.31;;;18.25;87.85
67931;BME280;54726;52.000;5.954;2022-07-21T03:22:24;101306.31;;;18.25;87.96
67931;BME280;54726;52.000;5.954;2022-07-21T03:23:25;101300.09;;;18.24;88.18
67931;BME280;54726;52.000;5.954;2022-07-21T03:24:26;101305.19;;;18.29;87.84
67931;BME280;54726;52.000;5.954;2022-07-21T03:25:27;101308.81;;;18.28;87.89
67931;BME280;54726;52.000;5.954;2022-07-21T03:26:28;101308.91;;;18.26;88.19
67931;BME280;54726;52.000;5.954;2022-07-21T03:27:28;101312.66;;;18.24;87.98
67931;BME280;54726;52.000;5.954;2022-07-21T03:28:29;101303.63;;;18.25;87.91
67931;BME280;54726;52.000;5.954;2022-07-21T03:29:29;101313.41;;;18.26;88.00
67931;BME280;54726;52.000;5.954;2022-07-21T03:30:29;101301.06;;;18.23;88.14
67931;BME280;54726;52.000;5.954;2022-07-21T03:31:30;101305.34;;;18.26;88.02
67931;BME280;54726;52.000;5.954;2022-07-21T03:32:30;101303.06;;;18.20;88.19
67931;BME280;54726;52.000;5.954;2022-07-21T03:33:31;101314.59;;;18.22;88.27
67931;BME280;54726;52.000;5.954;2022-07-21T03:34:31;101313.59;;;18.23;88.32
67931;BME280;54726;52.000;5.954;2022-07-21T03:35:32;101311.91;;;18.22;88.06
67931;BME280;54726;52.000;5.954;2022-07-21T03:36:33;101310.06;;;18.22;88.19
67931;BME280;54726;52.000;5.954;2022-07-21T03:37:40;101315.75;;;18.18;88.94
67931;BME280;54726;52.000;5.954;2022-07-21T03:38:42;101307.88;;;18.15;88.47
67931;BME280;54726;52.000;5.954;2022-07-21T03:39:42;101315.94;;;18.15;88.48
67931;BME280;54726;52.000;5.954;2022-07-21T03:40:42;101314.13;;;18.15;89.29
67931;BME280;54726;52.000;5.954;2022-07-21T03:41:43;101319.88;;;18.09;88.88
67931;BME280;54726;52.000;5.954;2022-07-21T03:42:43;101317.09;;;18.10;88.76
67931;BME280;54726;52.000;5.954;2022-07-21T03:43:44;101326.00;;;18.11;88.86
67931;BME280;54726;52.000;5.954;2022-07-21T03:44:44;101320.56;;;18.13;88.56
67931;BME280;54726;52.000;5.954;2022-07-21T03:45:45;101318.63;;;18.15;88.31
67931;BME280;54726;52.000;5.954;2022-07-21T03:46:46;101320.34;;;18.16;88.32
67931;BME280;54726;52.000;5.954;2022-07-21T03:47:46;101313.66;;;18.08;88.50
67931;BME280;54726;52.000;5.954;2022-07-21T03:48:47;101322.56;;;18.09;88.40
67931;BME280;54726;52.000;5.954;2022-07-21T03:49:47;101318.94;;;18.10;88.52
67931;BME280;54726;52.000;5.954;2022-07-21T03:50:48;101323.31;;;18.11;88.44
67931;BME280;54726;52.000;5.954;2022-07-21T03:51:48;101315.38;;;18.09;88.46
67931;BME280;54726;52.000;5.954;2022-07-21T03:52:48;101324.31;;;18.10;88.56
67931;BME280;54726;52.000;5.954;2022-07-21T03:53:50;101319.78;;;18.10;88.86
67931;BME280;54726;52.000;5.954;2022-07-21T03:54:51;101323.44;;;18.09;88.83
67931;BME280;54726;52.000;5.954;2022-07-21T03:55:51;101319.78;;;18.10;88.82
67931;BME280;54726;52.000;5.954;2022-07-21T03:56:51;101321.63;;;18.10;88.50
67931;BME280;54726;52.000;5.954;2022-07-21T03:57:53;101313.66;;;18.08;88.70
67931;BME280;54726;52.000;5.954;2022-07-21T03:58:54;101321.91;;;18.05;89.14
67931;BME280;54726;52.000;5.954;2022-07-21T03:59:55;101308.59;;;18.04;88.87
67931;BME280;54726;52.000;5.954;2022-07-21T04:00:55;101319.41;;;18.02;89.11
67931;BME280;54726;52.000;5.954;2022-07-21T04:01:56;101315.75;;;18.03;88.70
67931;BME280;54726;52.000;5.954;2022-07-21T04:02:57;101317.50;;;18.04;88.75
67931;BME280;54726;52.000;5.954;2022-07-21T04:03:57;101314.81;;;18.04;89.09
67931;BME280;54726;52.000;5.954;2022-07-21T04:04:58;101314.91;;;18.03;88.92
67931;BME280;54726;52.000;5.954;2022-07-21T04:05:58;101316.53;;;18.05;88.93
67931;BME280;54726;52.000;5.954;2022-07-21T04:06:58;101315.75;;;18.03;89.15
67931;BME280;54726;52.000;5.954;2022-07-21T04:07:59;101307.72;;;18.03;89.02
67931;BME280;54726;52.000;5.954;2022-07-21T04:09:02;101320.06;;;18.06;89.36
67931;BME280;54726;52.000;5.954;2022-07-21T04:10:03;101317.50;;;18.04;89.45
67931;BME280;54726;52.000;5.954;2022-07-21T04:11:05;101312.34;;;18.01;89.45
67931;BME280;54726;52.000;5.954;2022-07-21T04:12:06;101320.38;;;18.01;89.11
67931;BME280;54726;52.000;5.954;2022-07-21T04:13:08;101322.31;;;17.99;89.30
67931;BME280;54726;52.000;5.954;2022-07-21T04:14:08;101313.47;;;17.97;89.24
67931;BME280;54726;52.000;5.954;2022-07-21T04:15:09;101319.81;;;17.96;89.35
67931;BME280;54726;52.000;5.954;2022-07-21T04:16:10;101318.97;;;17.96;89.54
67931;BME280;54726;52.000;5.954;2022-07-21T04:17:10;101314.53;;;17.95;89.41
67931;BME280;54726;52.000;5.954;2022-07-21T04:18:11;101316.16;;;17.97;89.46
67931;BME280;54726;52.000;5.954;2022-07-21T04:19:11;101312.53;;;17.98;89.24
67931;BME280;54726;52.000;5.954;2022-07-21T04:20:13;101315.22;;;17.98;89.28
67931;BME280;54726;52.000;5.954;2022-07-21T04:21:13;101315.09;;;18.00;89.59
67931;BME280;54726;52.000;5.954;2022-07-21T04:22:14;101314.25;;;17.99;89.46
67931;BME280;54726;52.000;5.954;2022-07-21T04:23:14;101318.66;;;18.00;88.96
67931;BME280;54726;52.000;5.954;2022-07-21T04:24:16;101320.38;;;18.01;89.19
67931;BME280;54726;52.000;5.954;2022-07-21T04:25:17;101307.25;;;17.97;89.23
67931;BME280;54726;52.000;5.954;2022-07-21T04:26:18;101318.66;;;18.00;89.22
67931;BME280;54726;52.000;5.954;2022-07-21T04:27:18;101315.22;;;17.98;89.46
67931;BME280;54726;52.000;5.954;2022-07-21T04:28:19;101315.97;;;18.00;89.52
67931;BME280;54726;52.000;5.954;2022-07-21T04:29:19;101320.38;;;18.01;89.26
67931;BME280;54726;52.000;5.954;2022-07-21T04:30:21;101320.28;;;18.03;89.28
67931;BME280;54726;52.000;5.954;2022-07-21T04:31:22;101313.41;;;17.99;89.38
67931;BME280;54726;52.000;5.954;2022-07-21T04:32:23;101321.91;;;18.05;89.43
67931;BME280;54726;52.000;5.954;2022-07-21T04:33:23;101310.38;;;18.03;90.41
67931;BME280;54726;52.000;5.954;2022-07-21T04:34:23;101322.19;;;18.01;89.98
67931;BME280;54726;52.000;5.954;2022-07-21T04:35:24;101323.28;;;17.98;89.49
67931;BME280;54726;52.000;5.954;2022-07-21T04:36:24;101326.81;;;17.99;89.65
67931;BME280;54726;52.000;5.954;2022-07-21T04:37:25;101321.53;;;17.97;89.25
67931;BME280;54726;52.000;5.954;2022-07-21T04:38:26;101323.28;;;17.98;90.05
67931;BME280;54726;52.000;5.954;2022-07-21T04:39:28;101323.56;;;17.94;90.00
67931;BME280;54726;52.000;5.954;2022-07-21T04:40:28;101321.06;;;17.91;89.75
67931;BME280;54726;52.000;5.954;2022-07-21T04:41:29;101324.41;;;17.94;89.69
67931;BME280;54726;52.000;5.954;2022-07-21T04:42:29;101326.91;;;17.97;89.75
67931;BME280;54726;52.000;5.954;2022-07-21T04:43:30;101323.28;;;17.98;89.86
67931;BME280;54726;52.000;5.954;2022-07-21T04:44:30;101321.53;;;17.97;89.64
67931;BME280;54726;52.000;5.954;2022-07-21T04:45:31;101329.38;;;18.00;89.76
67931;BME280;54726;52.000;5.954;2022-07-21T04:46:31;101331.00;;;18.03;89.46
67931;BME280;54726;52.000;5.954;2022-07-21T04:47:32;101322.09;;;18.02;89.66
67931;BME280;54726;52.000;5.954;2022-07-21T04:48:32;101318.44;;;18.03;89.40
67931;BME280;54726;52.000;5.954;2022-07-21T04:49:33;101323.66;;;18.06;89.31
67931;BME280;54726;52.000;5.954;2022-07-21T04:50:33;101320.00;;;18.07;89.80
67931;BME280;54726;52.000;5.954;2022-07-21T04:51:34;101317.31;;;18.07;89.76
67931;BME280;54726;52.000;5.954;2022-07-21T04:52:34;101316.66;;;18.04;90.68
67931;BME280;54726;52.000;5.954;2022-07-21T04:53:35;101320.69;;;17.97;89.83
67931;BME280;54726;52.000;5.954;2022-07-21T04:54:36;101326.69;;;18.00;90.09
67931;BME280;54726;52.000;5.954;2022-07-21T04:55:37;101322.19;;;18.01;89.76
67931;BME280;54726;52.000;5.954;2022-07-21T04:56:37;101304.66;;;17.95;89.84
67931;BME280;54726;52.000;5.954;2022-07-21T04:57:38;101322.03;;;18.04;89.52
67931;BME280;54726;52.000;5.954;2022-07-21T04:58:38;101315.75;;;18.03;89.31
67931;BME280;54726;52.000;5.954;2022-07-21T04:59:39;101316.53;;;18.05;89.49
67931;BME280;54726;52.000;5.954;2022-07-21T05:00:39;101319.13;;;18.07;89.67
67931;BME280;54726;52.000;5.954;2022-07-21T05:01:40;101317.31;;;18.07;89.40
67931;BME280;54726;52.000;5.954;2022-07-21T05:02:40;101319.22;;;18.05;89.62
67931;BME280;54726;52.000;5.954;2022-07-21T05:03:41;101312.78;;;18.08;89.27
67931;BME280;54726;52.000;5.954;2022-07-21T05:04:41;101305.03;;;18.03;89.65
67931;BME280;54726;52.000;5.954;2022-07-21T05:05:41;101316.44;;;18.07;89.64
67931;BME280;54726;52.000;5.954;2022-07-21T05:06:42;101313.56;;;18.10;89.54
67931;BME280;54726;52.000;5.954;2022-07-21T05:07:42;101308.28;;;18.08;89.80
67931;BME280;54726;52.000;5.954;2022-07-21T05:08:43;101306.78;;;18.04;89.46
67931;BME280;54726;52.000;5.954;2022-07-21T05:09:44;101310.31;;;18.05;89.70
67931;BME280;54726;52.000;5.954;2022-07-21T05:10:45;101318.16;;;18.08;89.69
67931;BME280;54726;52.000;5.954;2022-07-21T05:11:46;101313.66;;;18.08;89.41
67931;BME280;54726;52.000;5.954;2022-07-21T05:12:46;101307.41;;;18.08;89.44
67931;BME280;54726;52.000;5.954;2022-07-21T05:13:47;101308.28;;;18.08;89.73
67931;BME280;54726;52.000;5.954;2022-07-21T05:14:47;101300.53;;;18.04;89.69
67931;BME280;54726;52.000;5.954;2022-07-21T05:15:48;101306.56;;;18.07;89.55
67931;BME280;54726;52.000;5.954;2022-07-21T05:16:48;101299.38;;;18.08;89.98
67931;BME280;54726;52.000;5.954;2022-07-21T05:17:48;101301.19;;;18.07;89.68